Time;durP1;ratioP1;P1;durP2;ratioP2;P2;SDS_P1;SDS_P2;PMS_P1;PMS_P2;Temp;Humidity;BMP_temperature;BMP_pressure;BME280_temperature;BME280_humidity;BME280_pressure;Samples;Min_cycle;Max_cycle;Signal;HPM_P1;HPM_P2
2021/08/25 00:00:28;;;;;;;7.63;5.27;;;13.20;90.90;;;;;;2049433;28;20226;-65
2021/08/25 00:01:29;;;;;;;6.75;4.93;;;13.20;91.20;;;;;;2049335;28;20182;-66
2021/08/25 00:02:29;;;;;;;8.00;5.60;;;13.10;91.20;;;;;;2048727;29;20187;-67
2021/08/25 00:03:30;;;;;;;8.93;5.40;;;13.20;91.20;;;;;;2040895;29;20184;-65
2021/08/25 00:04:31;;;;;;;6.80;4.73;;;13.20;91.00;;;;;;2048833;29;20670;-65
2021/08/25 00:05:32;;;;;;;9.43;5.33;;;13.20;91.00;;;;;;2049438;29;20534;-67
2021/08/25 00:06:32;;;;;;;8.53;4.70;;;13.10;91.00;;;;;;2049455;28;20186;-65
2021/08/25 00:07:33;;;;;;;8.07;5.10;;;13.10;91.10;;;;;;2049372;29;20190;-65
2021/08/25 00:08:34;;;;;;;8.90;5.53;;;13.10;91.20;;;;;;2049319;28;20635;-66
2021/08/25 00:09:41;;;;;;;6.97;5.10;;;13.10;91.10;;;;;;2049146;28;20602;-65
2021/08/25 00:10:42;;;;;;;7.88;5.32;;;13.20;91.00;;;;;;2048671;29;20242;-66
2021/08/25 00:11:42;;;;;;;8.87;6.17;;;13.20;90.80;;;;;;2048819;29;20254;-65
2021/08/25 00:12:43;;;;;;;7.77;4.83;;;13.20;90.70;;;;;;2049476;28;20211;-66
2021/08/25 00:13:44;;;;;;;7.17;5.13;;;13.20;90.80;;;;;;2049390;29;20616;-67
2021/08/25 00:14:45;;;;;;;8.90;5.68;;;13.20;90.80;;;;;;2049340;28;20186;-65
2021/08/25 00:15:46;;;;;;;8.10;5.60;;;13.20;90.80;;;;;;2049364;28;20187;-66
2021/08/25 00:16:47;;;;;;;9.30;5.88;;;13.10;90.80;;;;;;2049329;28;20570;-65
2021/08/25 00:17:48;;;;;;;8.43;5.87;;;13.10;91.10;;;;;;2049307;29;20184;-65
2021/08/25 00:18:48;;;;;;;6.43;4.60;;;13.00;91.30;;;;;;2049057;29;20278;-66
2021/08/25 00:19:49;;;;;;;9.03;5.37;;;13.10;91.30;;;;;;2048617;28;20199;-65
2021/08/25 00:20:50;;;;;;;7.40;5.60;;;13.10;91.10;;;;;;2048776;29;20187;-65
2021/08/25 00:21:50;;;;;;;7.40;5.20;;;13.10;90.90;;;;;;2048675;29;20635;-65
2021/08/25 00:22:51;;;;;;;10.63;4.80;;;13.20;90.80;;;;;;2048724;29;20200;-65
2021/08/25 00:23:52;;;;;;;6.77;5.07;;;13.20;90.70;;;;;;2049286;29;20176;-65
2021/08/25 00:24:53;;;;;;;8.73;6.00;;;13.20;90.70;;;;;;2049398;28;20176;-66
2021/08/25 00:25:54;;;;;;;8.48;5.18;;;13.20;90.70;;;;;;2049261;28;20180;-65
2021/08/25 00:26:55;;;;;;;8.57;5.67;;;13.10;90.90;;;;;;2049343;28;20745;-65
2021/08/25 00:27:56;;;;;;;6.10;4.50;;;13.00;91.20;;;;;;2049339;28;20176;-65
2021/08/25 00:28:56;;;;;;;9.00;5.57;;;12.90;91.30;;;;;;2049048;28;20191;-66
2021/08/25 00:29:57;;;;;;;7.53;5.40;;;12.90;91.30;;;;;;2049184;28;20246;-65
2021/08/25 00:30:58;;;;;;;9.77;6.33;;;13.00;91.20;;;;;;2048686;29;20212;-65
2021/08/25 00:31:58;;;;;;;9.07;5.97;;;13.00;90.90;;;;;;2048681;29;20604;-66
2021/08/25 00:32:59;;;;;;;9.17;5.50;;;13.10;90.80;;;;;;2049286;28;20179;-65
2021/08/25 00:34:00;;;;;;;7.60;5.80;;;13.10;90.70;;;;;;2049193;28;20187;-65
2021/08/25 00:35:00;;;;;;;8.83;5.87;;;13.10;90.80;;;;;;2049303;28;20521;-65
2021/08/25 00:36:01;;;;;;;6.27;4.83;;;13.10;90.80;;;;;;2049252;28;20180;-65
2021/08/25 00:37:02;;;;;;;9.13;5.60;;;13.00;91.10;;;;;;2049294;29;20186;-66
2021/08/25 00:38:03;;;;;;;9.10;6.10;;;12.90;91.50;;;;;;2049169;28;20535;-66
2021/08/25 00:39:04;;;;;;;9.07;4.93;;;12.90;91.70;;;;;;2048504;29;20198;-65
2021/08/25 00:40:06;;;;;;;7.55;5.78;;;13.00;91.60;;;;;;2048508;28;20199;-66
2021/08/25 00:41:07;;;;;;;8.55;6.00;;;13.00;91.40;;;;;;2049218;28;20713;-66
2021/08/25 00:42:08;;;;;;;7.37;5.20;;;13.00;91.20;;;;;;2049178;28;20267;-66
2021/08/25 00:43:11;;;;;;;7.00;5.20;;;13.00;91.10;;;;;;2049027;28;20617;-65
2021/08/25 00:44:13;;;;;;;9.23;6.30;;;13.00;91.10;;;;;;2049012;28;20191;-66
2021/08/25 00:45:13;;;;;;;8.70;5.97;;;13.00;91.10;;;;;;2048424;29;20203;-65
2021/08/25 00:46:15;;;;;;;7.70;4.63;;;12.90;91.30;;;;;;2048436;29;20176;-64
2021/08/25 00:47:16;;;;;;;8.27;5.68;;;12.90;91.30;;;;;;2049155;28;20180;-65
2021/08/25 00:48:18;;;;;;;7.40;5.97;;;12.90;91.50;;;;;;2048989;28;20290;-66
2021/08/25 00:49:21;;;;;;;10.10;6.75;;;12.90;91.40;;;;;;2048273;29;20180;-65
2021/08/25 00:50:22;;;;;;;9.27;5.03;;;12.90;91.20;;;;;;2048411;28;20282;-65
2021/08/25 00:51:23;;;;;;;6.90;4.73;;;13.00;91.10;;;;;;2049226;28;20183;-65
2021/08/25 00:52:24;;;;;;;10.73;5.68;;;13.00;91.10;;;;;;2050615;28;20251;-66
2021/08/25 00:53:25;;;;;;;8.90;5.13;;;13.10;91.10;;;;;;2051092;28;20207;-65
2021/08/25 00:54:25;;;;;;;8.33;5.80;;;13.00;91.10;;;;;;2050262;29;20186;-67
2021/08/25 00:55:26;;;;;;;8.40;5.87;;;12.80;92.10;;;;;;2050353;29;20190;-66
2021/08/25 00:56:27;;;;;;;9.10;6.33;;;12.80;91.60;;;;;;2050955;29;20853;-66
2021/08/25 00:57:28;;;;;;;10.03;6.17;;;12.80;91.50;;;;;;2050949;28;20179;-66
2021/08/25 00:58:28;;;;;;;7.83;5.23;;;12.90;91.50;;;;;;2050247;29;20467;-65
2021/08/25 00:59:32;;;;;;;8.53;5.50;;;12.90;91.40;;;;;;2051546;28;20183;-66
2021/08/25 01:00:38;;;;;;;9.20;5.68;;;13.00;91.30;;;;;;2050913;28;20238;-66
2021/08/25 01:01:55;;;;;;;9.93;5.80;;;13.00;91.20;;;;;;2043017;29;20604;-65
2021/08/25 01:03:13;;;;;;;9.68;5.70;;;13.00;91.00;;;;;;2044434;29;20195;-66
2021/08/25 01:04:28;;;;;;;7.88;6.03;;;13.00;90.80;;;;;;2044726;29;20586;-65
2021/08/25 01:05:32;;;;;;;8.02;5.78;;;13.00;90.80;;;;;;2044290;29;20180;-65
2021/08/25 01:06:35;;;;;;;10.75;6.05;;;12.90;91.30;;;;;;2042745;29;20192;-66
2021/08/25 01:07:38;;;;;;;8.27;5.88;;;12.80;91.30;;;;;;2050214;29;20679;-65
2021/08/25 01:08:39;;;;;;;8.63;5.55;;;12.90;91.30;;;;;;2052254;29;20194;-66
2021/08/25 01:09:40;;;;;;;7.57;5.20;;;12.90;91.30;;;;;;2050421;28;20191;-65
2021/08/25 01:10:41;;;;;;;7.82;5.95;;;12.80;91.40;;;;;;2050663;28;20194;-66
2021/08/25 01:11:46;;;;;;;7.60;5.93;;;12.90;91.40;;;;;;2050697;28;20586;-65
2021/08/25 01:12:47;;;;;;;7.10;5.00;;;12.90;91.30;;;;;;2050746;28;20168;-66
2021/08/25 01:13:48;;;;;;;8.00;5.93;;;13.00;91.30;;;;;;2050649;28;20179;-66
2021/08/25 01:14:49;;;;;;;9.97;5.27;;;12.90;91.10;;;;;;2050761;28;20184;-66
2021/08/25 01:15:50;;;;;;;8.38;5.97;;;13.00;91.20;;;;;;2050625;28;20191;-65
2021/08/25 01:16:52;;;;;;;9.30;5.50;;;12.90;91.20;;;;;;2050703;28;20267;-66
2021/08/25 01:17:53;;;;;;;7.47;5.30;;;13.00;90.90;;;;;;2050068;29;20582;-65
2021/08/25 01:18:57;;;;;;;7.57;5.95;;;12.90;91.00;;;;;;2033938;29;20299;-66
2021/08/25 01:20:10;;;;;;;7.88;5.55;;;12.80;91.40;;;;;;2042451;29;20191;-65
2021/08/25 01:21:12;;;;;;;7.20;5.43;;;12.80;91.30;;;;;;2050790;28;20172;-66
2021/08/25 01:22:18;;;;;;;9.88;5.13;;;12.80;91.30;;;;;;2050011;29;20188;-64
2021/08/25 01:23:21;;;;;;;8.68;5.60;;;12.90;91.10;;;;;;2050123;29;20239;-65
2021/08/25 01:24:23;;;;;;;9.20;5.50;;;12.80;91.40;;;;;;2050603;29;20204;-65
2021/08/25 01:25:26;;;;;;;9.68;5.35;;;12.80;91.40;;;;;;2049948;29;20187;-65
2021/08/25 01:26:30;;;;;;;8.45;6.05;;;12.80;91.30;;;;;;2050039;29;20184;-65
2021/08/25 01:27:33;;;;;;;8.82;6.57;;;12.80;91.10;;;;;;2050463;29;20647;-65
2021/08/25 01:28:42;;;;;;;8.77;5.80;;;12.90;91.10;;;;;;2049976;29;20634;-66
2021/08/25 01:29:43;;;;;;;7.18;4.85;;;12.90;91.20;;;;;;2049760;28;20164;-65
2021/08/25 01:30:45;;;;;;;7.07;5.13;;;12.90;91.10;;;;;;2050020;29;20231;-65
2021/08/25 01:31:47;;;;;;;7.88;5.22;;;12.90;91.10;;;;;;2049943;29;20179;-66
2021/08/25 01:32:47;;;;;;;8.63;5.75;;;12.90;91.10;;;;;;2049907;29;20192;-64
2021/08/25 01:33:48;;;;;;;5.70;4.40;;;12.90;91.10;;;;;;2049870;29;20180;-64
2021/08/25 01:34:57;;;;;;;9.97;5.40;;;12.80;91.20;;;;;;2050650;28;20180;-65
2021/08/25 01:35:59;;;;;;;8.15;5.25;;;12.80;91.30;;;;;;2050506;28;20164;-65
2021/08/25 01:36:59;;;;;;;6.10;5.30;;;12.80;91.40;;;;;;2050465;28;20187;-65
2021/08/25 01:38:03;;;;;;;7.87;5.47;;;12.80;91.60;;;;;;2050599;28;20185;-64
2021/08/25 01:39:04;;;;;;;7.75;5.57;;;12.80;91.50;;;;;;2049623;29;20294;-64
2021/08/25 01:40:05;;;;;;;7.68;5.25;;;12.80;91.40;;;;;;2049845;28;20290;-68
2021/08/25 01:41:06;;;;;;;7.47;5.88;;;12.80;91.50;;;;;;2049821;29;20564;-64
2021/08/25 01:42:07;;;;;;;7.97;6.03;;;12.80;91.30;;;;;;2049942;29;20262;-67
2021/08/25 01:43:08;;;;;;;9.27;5.90;;;12.80;91.20;;;;;;2050461;28;20714;-66
2021/08/25 01:44:09;;;;;;;10.30;6.50;;;12.90;91.20;;;;;;2050553;28;20180;-66
2021/08/25 01:45:10;;;;;;;8.50;5.43;;;12.90;91.00;;;;;;2050443;28;20180;-65
2021/08/25 01:46:23;;;;;;;7.88;5.38;;;12.80;91.10;;;;;;2050506;28;20211;-66
2021/08/25 01:47:23;;;;;;;7.95;5.53;;;12.80;91.10;;;;;;2049989;29;20172;-65
2021/08/25 01:48:24;;;;;;;9.33;6.50;;;12.80;91.10;;;;;;2049886;29;20617;-64
2021/08/25 01:49:25;;;;;;;7.63;6.13;;;12.80;91.00;;;;;;2050209;28;20609;-66
2021/08/25 01:50:26;;;;;;;10.03;5.77;;;12.80;90.90;;;;;;2050236;28;20196;-65
2021/08/25 01:51:28;;;;;;;8.80;6.80;;;12.80;91.00;;;;;;2050390;28;20635;-66
2021/08/25 01:52:29;;;;;;;9.40;6.43;;;12.70;91.20;;;;;;2050341;28;20210;-66
2021/08/25 01:53:30;;;;;;;9.73;6.77;;;12.60;91.40;;;;;;2050396;28;20649;-66
2021/08/25 01:54:30;;;;;;;11.40;7.10;;;12.60;91.40;;;;;;2049881;29;20172;-65
2021/08/25 01:55:31;;;;;;;9.57;7.00;;;12.70;91.30;;;;;;2049656;29;20226;-67
2021/08/25 01:56:32;;;;;;;10.73;7.00;;;12.60;91.30;;;;;;2049785;29;20234;-66
2021/08/25 01:57:32;;;;;;;11.00;6.13;;;12.60;91.30;;;;;;2049760;29;20187;-64
2021/08/25 01:58:33;;;;;;;10.83;6.67;;;12.60;91.30;;;;;;2050283;28;20210;-66
2021/08/25 01:59:38;;;;;;;9.67;6.20;;;12.70;91.80;;;;;;2050069;28;20587;-65
2021/08/25 02:00:38;;;;;;;10.95;6.82;;;12.60;91.40;;;;;;2050279;28;20699;-65
2021/08/25 02:01:39;;;;;;;10.40;6.87;;;12.60;91.50;;;;;;2050228;28;20188;-66
2021/08/25 02:02:40;;;;;;;10.20;6.47;;;12.60;91.50;;;;;;2049853;28;20168;-65
2021/08/25 02:03:40;;;;;;;8.83;6.13;;;12.60;91.50;;;;;;2049660;29;20176;-66
2021/08/25 02:04:41;;;;;;;9.23;6.37;;;12.60;91.40;;;;;;2049761;29;20172;-66
2021/08/25 02:05:42;;;;;;;9.27;5.60;;;12.70;91.30;;;;;;2049488;29;20187;-66
2021/08/25 02:06:42;;;;;;;10.47;6.73;;;12.70;91.30;;;;;;2049710;29;20179;-66
2021/08/25 02:07:44;;;;;;;8.73;5.97;;;12.70;91.30;;;;;;2050084;29;20682;-64
2021/08/25 02:08:45;;;;;;;8.43;5.90;;;12.80;91.20;;;;;;2050157;28;20188;-65
2021/08/25 02:09:46;;;;;;;11.63;6.40;;;12.80;91.00;;;;;;2049979;28;20207;-67
2021/08/25 02:10:46;;;;;;;7.90;5.80;;;12.80;91.00;;;;;;2050241;28;20258;-66
2021/08/25 02:11:48;;;;;;;8.57;6.23;;;12.80;91.10;;;;;;2050262;28;20798;-66
2021/08/25 02:12:49;;;;;;;10.00;5.95;;;12.70;91.20;;;;;;2048631;28;20176;-66
2021/08/25 02:13:50;;;;;;;7.90;5.63;;;12.70;91.10;;;;;;2049064;29;20196;-66
2021/08/25 02:14:51;;;;;;;9.75;7.18;;;12.80;91.10;;;;;;2050199;28;20192;-65
2021/08/25 02:15:52;;;;;;;7.90;6.03;;;12.80;91.10;;;;;;2050164;28;20647;-66
2021/08/25 02:16:53;;;;;;;12.37;6.83;;;12.70;91.10;;;;;;2050267;28;20180;-65
2021/08/25 02:17:53;;;;;;;8.30;5.37;;;12.70;91.10;;;;;;2050164;28;20207;-66
2021/08/25 02:18:54;;;;;;;9.87;6.90;;;12.80;91.10;;;;;;2049997;28;20219;-66
2021/08/25 02:19:55;;;;;;;9.37;6.10;;;12.70;91.10;;;;;;2050089;28;20254;-65
2021/08/25 02:20:55;;;;;;;11.40;6.63;;;12.70;91.10;;;;;;2050133;28;20541;-65
2021/08/25 02:21:56;;;;;;;8.40;6.17;;;12.80;91.00;;;;;;2050119;28;20178;-67
2021/08/25 02:22:57;;;;;;;8.93;5.90;;;12.80;90.80;;;;;;2049591;29;20319;-66
2021/08/25 02:23:58;;;;;;;15.80;6.13;;;12.80;90.70;;;;;;2049508;29;20773;-65
2021/08/25 02:24:59;;;;;;;7.35;5.45;;;12.80;91.00;;;;;;2050037;28;20179;-65
2021/08/25 02:25:59;;;;;;;8.43;5.53;;;12.70;91.30;;;;;;2049498;29;20274;-65
2021/08/25 02:27:00;;;;;;;10.97;7.33;;;12.60;91.40;;;;;;2049539;29;20180;-66
2021/08/25 02:28:01;;;;;;;7.87;5.87;;;12.60;91.60;;;;;;2050148;28;20234;-66
2021/08/25 02:29:02;;;;;;;8.90;4.87;;;12.40;91.90;;;;;;2049861;28;20182;-64
2021/08/25 02:30:03;;;;;;;9.10;6.43;;;12.40;92.10;;;;;;2049504;28;20212;-66
2021/08/25 02:31:04;;;;;;;8.98;6.20;;;12.40;92.00;;;;;;2049423;29;20428;-64
2021/08/25 02:32:05;;;;;;;8.87;6.20;;;12.50;91.90;;;;;;2049972;28;20196;-65
2021/08/25 02:33:07;;;;;;;8.63;5.65;;;12.50;91.70;;;;;;2049974;28;20605;-65
2021/08/25 02:34:07;;;;;;;10.02;7.80;;;12.60;91.50;;;;;;2050130;28;20192;-65
2021/08/25 02:35:12;;;;;;;9.27;5.50;;;12.60;91.80;;;;;;2050077;29;20180;-66
2021/08/25 02:36:15;;;;;;;10.90;6.10;;;12.70;91.30;;;;;;2049959;28;20184;-67
2021/08/25 02:37:16;;;;;;;9.88;6.35;;;12.70;91.30;;;;;;2049514;29;20184;-66
2021/08/25 02:38:17;;;;;;;12.45;7.10;;;12.70;90.90;;;;;;2049286;29;20195;-65
2021/08/25 02:39:17;;;;;;;8.93;6.47;;;12.70;90.90;;;;;;2049845;28;20218;-65
2021/08/25 02:40:18;;;;;;;10.03;5.87;;;12.70;90.80;;;;;;2049914;28;20199;-65
2021/08/25 02:41:20;;;;;;;12.35;6.35;;;12.70;91.00;;;;;;2049987;28;20183;-65
2021/08/25 02:42:21;;;;;;;9.82;6.07;;;12.60;91.00;;;;;;2049328;29;20184;-66
2021/08/25 02:43:21;;;;;;;8.67;5.70;;;12.60;91.30;;;;;;2049414;29;20775;-64
2021/08/25 02:44:22;;;;;;;10.40;6.53;;;12.50;91.30;;;;;;2049978;28;20657;-64
2021/08/25 02:45:23;;;;;;;10.03;7.23;;;12.40;91.20;;;;;;2050008;28;20275;-66
2021/08/25 02:46:24;;;;;;;10.20;6.10;;;12.40;91.50;;;;;;2049982;28;20191;-65
2021/08/25 02:47:24;;;;;;;9.70;5.80;;;12.30;91.60;;;;;;2049982;28;20187;-66
2021/08/25 02:48:25;;;;;;;8.37;5.67;;;12.20;91.70;;;;;;2049862;28;20546;-65
2021/08/25 02:49:26;;;;;;;9.63;6.43;;;12.20;91.70;;;;;;2049719;28;20180;-66
2021/08/25 02:50:26;;;;;;;8.60;6.43;;;12.20;91.80;;;;;;2049804;28;20180;-66
2021/08/25 02:51:27;;;;;;;9.47;6.07;;;12.20;92.00;;;;;;2049996;28;20643;-66
2021/08/25 02:52:28;;;;;;;8.77;5.87;;;12.10;92.20;;;;;;2049861;28;20234;-65
2021/08/25 02:53:28;;;;;;;10.83;7.63;;;12.10;92.20;;;;;;2049968;28;20265;-64
2021/08/25 02:54:29;;;;;;;10.43;6.80;;;12.10;92.20;;;;;;2049876;28;20230;-65
2021/08/25 02:55:30;;;;;;;8.43;6.70;;;12.10;92.30;;;;;;2049919;28;20267;-65
2021/08/25 02:56:31;;;;;;;8.97;6.07;;;12.00;92.40;;;;;;2049959;28;20227;-64
2021/08/25 02:57:31;;;;;;;10.67;6.93;;;12.00;92.50;;;;;;2049907;28;20525;-66
2021/08/25 02:58:32;;;;;;;10.30;6.33;;;12.00;92.50;;;;;;2049929;28;20300;-65
2021/08/25 02:59:33;;;;;;;15.80;7.07;;;12.00;92.50;;;;;;2051933;28;20180;-64
2021/08/25 03:00:34;;;;;;;10.23;7.00;;;12.10;92.50;;;;;;2057910;28;20179;-65
2021/08/25 03:01:34;;;;;;;11.80;7.63;;;12.10;92.70;;;;;;2057801;28;20191;-65
2021/08/25 03:02:35;;;;;;;10.10;7.30;;;12.00;92.90;;;;;;2058033;28;20179;-66
2021/08/25 03:03:36;;;;;;;11.30;6.67;;;11.90;93.10;;;;;;2057245;28;20186;-65
2021/08/25 03:04:36;;;;;;;10.87;7.37;;;11.90;93.30;;;;;;2057389;28;20179;-65
2021/08/25 03:05:37;;;;;;;7.33;5.93;;;11.90;93.30;;;;;;2057902;28;20182;-66
2021/08/25 03:06:38;;;;;;;8.30;6.87;;;11.90;93.30;;;;;;2058055;28;20203;-66
2021/08/25 03:07:38;;;;;;;11.30;7.03;;;11.90;93.20;;;;;;2057906;28;20178;-64
2021/08/25 03:08:39;;;;;;;10.70;7.50;;;11.90;93.10;;;;;;2058054;28;20179;-65
2021/08/25 03:09:40;;;;;;;10.17;7.53;;;12.00;93.10;;;;;;2057789;28;20279;-66
2021/08/25 03:10:40;;;;;;;11.00;6.47;;;12.00;92.90;;;;;;2057876;28;20262;-65
2021/08/25 03:11:41;;;;;;;9.83;6.57;;;12.00;92.90;;;;;;2058108;28;20197;-66
2021/08/25 03:12:42;;;;;;;9.23;6.80;;;12.10;92.90;;;;;;2057938;28;20525;-65
2021/08/25 03:13:43;;;;;;;11.77;7.10;;;12.10;92.80;;;;;;2057980;28;20187;-64
2021/08/25 03:14:43;;;;;;;9.03;6.07;;;12.20;92.70;;;;;;2057053;28;20175;-67
2021/08/25 03:15:46;;;;;;;10.83;6.97;;;12.10;92.60;;;;;;2057804;28;20179;-66
2021/08/25 03:16:46;;;;;;;11.13;6.93;;;12.20;92.50;;;;;;2057400;28;20186;-65
2021/08/25 03:17:47;;;;;;;9.23;6.80;;;12.20;92.50;;;;;;2057420;28;20210;-64
2021/08/25 03:18:47;;;;;;;10.20;6.80;;;12.20;92.60;;;;;;2057639;28;20578;-67
2021/08/25 03:19:48;;;;;;;8.53;6.50;;;12.20;92.50;;;;;;2057765;28;20214;-66
2021/08/25 03:20:49;;;;;;;12.10;6.90;;;12.20;92.50;;;;;;2057816;28;20182;-65
2021/08/25 03:21:50;;;;;;;9.60;7.20;;;12.20;92.40;;;;;;2057920;28;20571;-64
2021/08/25 03:22:50;;;;;;;9.37;6.00;;;12.30;92.40;;;;;;2057079;28;20566;-66
2021/08/25 03:23:51;;;;;;;7.90;5.37;;;12.30;92.10;;;;;;2057221;28;20183;-65
2021/08/25 03:24:52;;;;;;;10.60;6.73;;;12.30;92.00;;;;;;2057925;28;20187;-66
2021/08/25 03:25:53;;;;;;;10.60;7.10;;;12.30;92.00;;;;;;2057802;28;20176;-65
2021/08/25 03:26:54;;;;;;;10.40;6.07;;;12.40;91.90;;;;;;2057910;28;20418;-64
2021/08/25 03:27:55;;;;;;;10.33;7.20;;;12.40;91.90;;;;;;2057646;28;20186;-65
2021/08/25 03:28:56;;;;;;;10.23;5.67;;;12.40;91.80;;;;;;2057443;28;20183;-65
2021/08/25 03:29:56;;;;;;;10.73;7.53;;;12.40;91.80;;;;;;2057532;28;20202;-67
2021/08/25 03:30:57;;;;;;;10.53;6.30;;;12.40;91.70;;;;;;2057682;28;20176;-65
2021/08/25 03:31:58;;;;;;;9.63;6.67;;;12.40;91.50;;;;;;2057666;28;20273;-65
2021/08/25 03:33:05;;;;;;;7.03;5.77;;;12.50;91.40;;;;;;2057677;28;20188;-66
2021/08/25 03:34:06;;;;;;;9.40;6.38;;;12.50;91.10;;;;;;2057190;28;20160;-66
2021/08/25 03:35:07;;;;;;;13.13;6.37;;;12.50;91.10;;;;;;2057025;28;20223;-65
2021/08/25 03:36:08;;;;;;;9.35;6.43;;;12.30;91.40;;;;;;2057671;28;20199;-65
2021/08/25 03:37:09;;;;;;;8.30;5.87;;;12.40;91.60;;;;;;2057771;28;20663;-65
2021/08/25 03:38:10;;;;;;;8.40;6.37;;;12.30;91.50;;;;;;2057519;28;20626;-65
2021/08/25 03:39:10;;;;;;;9.43;5.63;;;12.20;92.00;;;;;;2057316;28;20215;-67
2021/08/25 03:40:11;;;;;;;9.57;6.30;;;12.10;92.30;;;;;;2057747;28;20199;-65
2021/08/25 03:41:12;;;;;;;9.52;6.25;;;12.10;92.50;;;;;;2057591;28;20194;-65
2021/08/25 03:42:13;;;;;;;8.83;6.20;;;12.10;92.50;;;;;;2057889;28;20179;-65
2021/08/25 03:43:14;;;;;;;10.90;6.63;;;12.10;92.30;;;;;;2057804;28;20182;-64
2021/08/25 03:44:14;;;;;;;10.07;5.90;;;12.20;92.10;;;;;;2057218;28;20190;-64
2021/08/25 03:45:15;;;;;;;10.33;6.33;;;12.30;92.00;;;;;;2056978;28;20258;-69
2021/08/25 03:46:16;;;;;;;6.20;4.97;;;12.30;91.80;;;;;;2057589;28;20187;-65
2021/08/25 03:47:16;;;;;;;8.23;5.97;;;12.30;91.40;;;;;;2057765;28;20186;-63
2021/08/25 03:48:17;;;;;;;11.00;6.60;;;12.40;91.30;;;;;;2057539;28;20638;-65
2021/08/25 03:49:18;;;;;;;9.57;7.10;;;12.30;91.30;;;;;;2057294;28;20186;-64
2021/08/25 03:50:18;;;;;;;8.37;6.10;;;12.30;91.60;;;;;;2057768;28;20234;-66
2021/08/25 03:51:19;;;;;;;9.50;6.83;;;12.20;91.60;;;;;;2057018;28;20179;-65
2021/08/25 03:52:20;;;;;;;9.83;6.60;;;12.30;91.70;;;;;;2057022;28;20674;-65
2021/08/25 03:53:21;;;;;;;10.03;7.23;;;12.30;91.60;;;;;;2057508;28;20419;-66
2021/08/25 03:54:21;;;;;;;10.10;6.67;;;12.30;91.50;;;;;;2057507;28;20183;-66
2021/08/25 03:55:22;;;;;;;10.47;6.67;;;12.20;92.10;;;;;;2057370;28;20563;-64
2021/08/25 03:56:23;;;;;;;10.10;6.90;;;12.10;92.20;;;;;;2057495;28;20206;-68
2021/08/25 03:57:24;;;;;;;11.77;7.10;;;12.10;92.30;;;;;;2057356;28;20595;-65
2021/08/25 03:58:25;;;;;;;9.07;6.67;;;12.20;92.30;;;;;;2057393;28;20205;-66
2021/08/25 03:59:25;;;;;;;9.53;7.07;;;12.10;92.20;;;;;;2057120;28;20233;-67
2021/08/25 04:00:26;;;;;;;9.53;7.03;;;12.20;92.10;;;;;;2057370;28;20199;-66
2021/08/25 04:01:27;;;;;;;11.00;6.73;;;12.20;92.10;;;;;;2057270;28;20681;-65
2021/08/25 04:02:27;;;;;;;10.17;7.00;;;12.20;92.00;;;;;;2057469;28;20180;-68
2021/08/25 04:03:28;;;;;;;10.93;6.20;;;12.20;91.90;;;;;;2057309;28;20178;-66
2021/08/25 04:04:29;;;;;;;10.20;6.03;;;12.30;91.70;;;;;;2057437;28;20179;-66
2021/08/25 04:05:29;;;;;;;9.83;6.90;;;12.20;91.60;;;;;;2057374;28;20265;-67
2021/08/25 04:06:30;;;;;;;8.43;6.03;;;12.10;92.10;;;;;;2057419;28;20225;-67
2021/08/25 04:07:31;;;;;;;13.63;7.97;;;12.00;92.20;;;;;;2057444;28;20187;-65
2021/08/25 04:08:32;;;;;;;7.40;6.47;;;11.90;92.40;;;;;;2057402;28;20182;-67
2021/08/25 04:09:32;;;;;;;10.10;6.77;;;12.00;92.50;;;;;;2057243;28;20175;-66
2021/08/25 04:10:33;;;;;;;10.07;7.13;;;12.00;92.30;;;;;;2057607;28;20224;-63
2021/08/25 04:11:34;;;;;;;11.63;6.87;;;12.10;92.20;;;;;;2058016;28;20181;-66
2021/08/25 04:12:35;;;;;;;10.63;6.80;;;12.10;92.20;;;;;;2057371;28;20178;-65
2021/08/25 04:13:36;;;;;;;9.53;7.17;;;12.20;92.00;;;;;;2057378;28;20187;-67
2021/08/25 04:14:36;;;;;;;9.27;6.17;;;12.20;91.90;;;;;;2057405;28;20642;-66
2021/08/25 04:15:40;;;;;;;9.33;5.37;;;12.20;91.90;;;;;;2057346;28;20838;-65
2021/08/25 04:16:40;;;;;;;11.15;7.47;;;12.20;91.80;;;;;;2057339;28;20238;-66
2021/08/25 04:17:41;;;;;;;8.33;6.27;;;12.10;92.00;;;;;;2057307;28;20656;-65
2021/08/25 04:18:42;;;;;;;9.00;5.90;;;12.00;91.90;;;;;;2057190;28;20225;-67
2021/08/25 04:19:42;;;;;;;11.90;7.60;;;11.90;92.20;;;;;;2057089;28;20266;-67
2021/08/25 04:20:43;;;;;;;7.73;5.93;;;11.90;92.50;;;;;;2057222;28;20193;-66
2021/08/25 04:21:44;;;;;;;7.77;5.93;;;11.90;92.30;;;;;;2057361;28;20175;-66
2021/08/25 04:22:44;;;;;;;7.73;6.13;;;11.90;92.30;;;;;;2057290;28;20176;-65
2021/08/25 04:23:46;;;;;;;9.83;6.50;;;11.90;92.40;;;;;;2056731;28;20175;-66
2021/08/25 04:24:47;;;;;;;9.48;6.03;;;11.90;92.40;;;;;;2056769;28;20198;-66
2021/08/25 04:25:48;;;;;;;10.37;6.43;;;11.90;92.30;;;;;;2057076;28;20194;-67
2021/08/25 04:26:48;;;;;;;8.40;6.03;;;12.00;92.30;;;;;;2057304;28;20175;-67
2021/08/25 04:27:49;;;;;;;12.37;5.93;;;12.00;92.20;;;;;;2057344;28;20218;-66
2021/08/25 04:28:50;;;;;;;9.60;6.27;;;12.00;92.10;;;;;;2057019;28;20345;-67
2021/08/25 04:29:50;;;;;;;10.57;6.27;;;12.00;92.00;;;;;;2057256;28;20298;-66
2021/08/25 04:30:51;;;;;;;7.80;5.57;;;12.00;92.00;;;;;;2057226;28;20219;-66
2021/08/25 04:31:52;;;;;;;9.07;6.77;;;12.00;92.00;;;;;;2057323;28;20174;-66
2021/08/25 04:32:53;;;;;;;8.93;6.43;;;12.00;92.00;;;;;;2057158;28;20183;-66
2021/08/25 04:33:53;;;;;;;8.20;5.33;;;12.10;91.90;;;;;;2057247;28;20183;-66
2021/08/25 04:34:54;;;;;;;10.07;6.00;;;12.10;91.80;;;;;;2057312;28;20186;-66
2021/08/25 04:35:55;;;;;;;9.67;6.63;;;12.10;91.70;;;;;;2056641;28;20508;-66
2021/08/25 04:36:55;;;;;;;7.43;5.63;;;12.10;91.70;;;;;;2056633;28;20187;-66
2021/08/25 04:37:56;;;;;;;11.27;5.73;;;12.10;91.70;;;;;;2057285;28;20179;-67
2021/08/25 04:38:57;;;;;;;8.30;5.70;;;12.10;91.60;;;;;;2056872;28;20203;-66
2021/08/25 04:39:57;;;;;;;9.63;5.83;;;12.20;91.50;;;;;;2057168;28;20259;-66
2021/08/25 04:40:58;;;;;;;6.83;5.10;;;12.20;91.30;;;;;;2057535;28;20199;-65
2021/08/25 04:41:59;;;;;;;9.57;6.57;;;12.30;91.20;;;;;;2056795;28;20261;-66
2021/08/25 04:43:00;;;;;;;8.73;5.73;;;12.30;91.00;;;;;;2048940;28;20184;-66
2021/08/25 04:44:01;;;;;;;9.20;5.70;;;12.30;90.90;;;;;;2056902;28;20183;-66
2021/08/25 04:45:03;;;;;;;8.50;6.10;;;12.30;90.80;;;;;;2057535;28;20179;-66
2021/08/25 04:46:04;;;;;;;9.15;6.28;;;12.40;90.90;;;;;;2056740;28;20280;-66
2021/08/25 04:47:05;;;;;;;7.00;5.37;;;12.40;90.70;;;;;;2056834;28;20666;-67
2021/08/25 04:48:06;;;;;;;10.30;6.10;;;12.40;90.60;;;;;;2057365;28;20183;-67
2021/08/25 04:49:06;;;;;;;8.95;5.20;;;12.30;90.60;;;;;;2057038;28;20179;-67
2021/08/25 04:50:08;;;;;;;7.60;5.13;;;12.30;90.70;;;;;;2057271;28;20686;-67
2021/08/25 04:51:11;;;;;;;9.32;5.72;;;12.20;91.20;;;;;;2057467;28;20190;-66
2021/08/25 04:52:13;;;;;;;8.95;6.20;;;12.10;91.40;;;;;;2057443;28;20201;-66
2021/08/25 04:53:14;;;;;;;8.52;5.82;;;12.10;91.20;;;;;;2057361;28;20190;-65
2021/08/25 04:54:15;;;;;;;6.93;6.13;;;12.10;91.30;;;;;;2057476;28;20218;-66
2021/08/25 04:55:16;;;;;;;6.73;5.03;;;12.10;91.30;;;;;;2054524;28;20596;-65
2021/08/25 04:56:16;;;;;;;8.90;5.68;;;12.10;91.30;;;;;;2052575;28;20198;-65
2021/08/25 04:57:17;;;;;;;8.80;6.23;;;12.10;91.30;;;;;;2043301;28;20671;-65
2021/08/25 04:58:18;;;;;;;11.20;6.40;;;12.10;91.40;;;;;;2052745;28;20179;-66
2021/08/25 04:59:18;;;;;;;7.87;5.37;;;12.10;91.40;;;;;;2053308;28;20183;-65
2021/08/25 05:00:19;;;;;;;9.83;6.83;;;12.10;91.40;;;;;;2050728;28;20295;-66
2021/08/25 05:01:20;;;;;;;9.13;6.03;;;12.00;91.50;;;;;;2055389;28;20187;-65
2021/08/25 05:02:21;;;;;;;8.33;5.73;;;11.90;91.80;;;;;;2057312;28;20498;-66
2021/08/25 05:03:21;;;;;;;9.07;6.23;;;11.90;91.90;;;;;;2057204;28;20632;-66
2021/08/25 05:04:22;;;;;;;12.67;7.00;;;12.00;91.80;;;;;;2057120;28;20273;-66
2021/08/25 05:05:23;;;;;;;8.67;4.93;;;12.00;91.70;;;;;;2057261;28;20179;-66
2021/08/25 05:06:24;;;;;;;9.10;6.10;;;12.00;91.70;;;;;;2057252;28;20179;-66
2021/08/25 05:07:24;;;;;;;9.23;6.53;;;12.00;91.50;;;;;;2057253;28;20218;-65
2021/08/25 05:08:27;;;;;;;6.03;5.03;;;12.00;91.50;;;;;;2057092;28;20178;-67
2021/08/25 05:09:27;;;;;;;8.68;6.13;;;12.10;91.40;;;;;;2056660;28;20270;-65
2021/08/25 05:10:28;;;;;;;7.70;5.10;;;12.20;91.20;;;;;;2057145;28;20190;-65
2021/08/25 05:11:29;;;;;;;8.80;6.07;;;12.10;91.20;;;;;;2057368;28;20257;-66
2021/08/25 05:12:29;;;;;;;9.50;5.67;;;12.20;91.30;;;;;;2057308;28;20183;-66
2021/08/25 05:13:31;;;;;;;9.37;5.20;;;12.20;91.00;;;;;;2057266;28;20266;-66
2021/08/25 05:14:32;;;;;;;7.95;5.53;;;12.30;90.80;;;;;;2057283;28;20187;-66
2021/08/25 05:15:33;;;;;;;9.00;5.57;;;12.20;90.70;;;;;;2057251;28;20179;-65
2021/08/25 05:16:33;;;;;;;6.87;5.20;;;12.20;90.70;;;;;;2057054;28;20242;-66
2021/08/25 05:17:34;;;;;;;7.40;5.47;;;12.30;90.70;;;;;;2057294;28;20190;-66